Kouka Maru — JD2844 — position and weather

sailwx.info

Track history (hours):
 
Tides and Currents Weather Stations Pressure Air Temp Water Temp Dewpoint Dewpoint Depression Visibility Wind Speed Wind Dir Waves Ship Positions

Kouka Maru

Last reported at 2018-Jan-19 06:20 UTC. Time now 2018-Jan-19 07:23 UTC.
Position N 34°32' E 138°31'.

Length 68 m; draft 3.7 m.

MMSI: 431000836.

Date/timePositionNaut miles runAvg speedWind from/ knotsBaromVisibWave heightAir tempDewpointWater temp
2018-Jan-19 06:20N 34°32' E 138°31'710.0
2018-Jan-19 05:38N 34°32' E 138°23'169 9.1
2018-Jan-18 11:04N 33°49' E 135°05'311.3
2018-Jan-18 10:50N 33°51' E 135°03'411.1
2018-Jan-18 10:30N 33°54' E 135°01'611.0
2018-Jan-18 10:00N 33°59' E 134°60'511.0
2018-Jan-18 09:30N 34°05' E 134°59'611.0
2018-Jan-18 09:00N 34°10' E 134°59'611.7
2018-Jan-18 08:30N 34°16' E 134°59'611.0
2018-Jan-18 08:00N 34°22' E 134°60'611.2
2018-Jan-18 07:30N 34°27' E 135°01'510.8
2018-Jan-18 07:00N 34°32' E 135°02'510.3
2018-Jan-18 06:30N 34°37' E 135°00'612.3
2018-Jan-18 06:01N 34°38' E 134°53'  
2018-Jan-11 22:43N 34°43' E 134°48'2 8.9
2018-Jan-11 22:30N 34°42' E 134°46'0 0.4
2018-Jan-11 22:00N 34°42' E 134°46'0 0.0
2018-Jan-11 21:30N 34°42' E 134°46'0 0.0
2018-Jan-11 21:00N 34°42' E 134°46'0 0.0
2018-Jan-11 20:30N 34°42' E 134°46'0 0.0
2018-Jan-11 20:00N 34°42' E 134°46'0 0.0
2018-Jan-11 19:30N 34°42' E 134°46'0 0.0
2018-Jan-11 19:01N 34°42' E 134°46'0 0.0
2018-Jan-11 18:30N 34°42' E 134°46'0 0.0
2018-Jan-11 18:00N 34°42' E 134°46'0 0.1
2018-Jan-11 17:30N 34°42' E 134°46'0 0.1
2018-Jan-11 17:00N 34°42' E 134°46'1 2.7
2018-Jan-11 16:31N 34°41' E 134°48'510.5
2018-Jan-11 16:01N 34°38' E 134°53'5 9.7
2018-Jan-11 15:30N 34°38' E 134°59'4 8.5
2018-Jan-11 15:00N 34°36' E 135°03'4 7.1
2018-Jan-11 14:30N 34°33' E 135°05'510.7
2018-Jan-11 14:01N 34°28' E 135°03'510.7
2018-Jan-11 13:31N 34°22' E 135°01'510.5
2018-Jan-11 13:01N 34°17' E 134°59'5 9.1
2018-Jan-11 12:31N 34°13' E 134°59'510.3
2018-Jan-11 12:00N 34°08' E 134°60'510.3
2018-Jan-11 11:30N 34°03' E 135°01'5 9.9
2018-Jan-11 10:59N 33°58' E 135°02'164 7.9
2018-Jan-10 14:14N 34°34' E 138°16'5 8.6
2018-Jan-10 13:40N 34°35' E 138°22'3 9.2
2018-Jan-10 13:17N 34°35' E 138°26'5 8.9
2018-Jan-10 12:44N 34°35' E 138°32'4 8.8
2018-Jan-10 12:14N 34°35' E 138°37'2 8.8
2018-Jan-10 12:00N 34°35' E 138°40'7 8.3
2018-Jan-10 11:05N 34°35' E 138°49'4 7.5
2018-Jan-10 10:30N 34°36' E 138°54'4 8.2
2018-Jan-10 09:58N 34°38' E 138°59'4 9.2
2018-Jan-10 09:30N 34°41' E 139°02'1510.2
2018-Jan-10 08:03N 34°54' E 139°11'210.2
2018-Jan-10 07:49N 34°56' E 139°13'410.1
2018-Jan-10 07:25N 34°58' E 139°17'410.5
2018-Jan-10 07:00N 34°60' E 139°22'5 9.7
2018-Jan-10 06:30N 35°02' E 139°27'4 8.7
2018-Jan-10 06:00N 35°04' E 139°32'4 7.9
2018-Jan-10 05:31N 35°06' E 139°36'4 7.5
2018-Jan-10 05:00N 35°07' E 139°41'3 6.4
2018-Jan-10 04:30N 35°09' E 139°44'4 7.7
2018-Jan-10 04:00N 35°13' E 139°46'4 8.9
2018-Jan-10 03:31N 35°17' E 139°45'510.9
2018-Jan-10 03:01N 35°21' E 139°41'0 0.2
2018-Jan-10 02:30N 35°21' E 139°41'0 0.0
2018-Jan-10 02:00N 35°21' E 139°41'0 0.0
2018-Jan-10 01:30N 35°21' E 139°41'0 0.0
2018-Jan-10 01:00N 35°21' E 139°41'0 0.0
2018-Jan-10 00:30N 35°21' E 139°41'0 0.0
2018-Jan-10 00:00N 35°21' E 139°41'0 0.0
2018-Jan-09 23:27N 35°21' E 139°41'0 0.0
2018-Jan-09 23:00N 35°21' E 139°41'0 0.0
2018-Jan-09 22:30N 35°21' E 139°41'0 0.0
2018-Jan-09 22:00N 35°21' E 139°41'0 0.0
2018-Jan-09 21:30N 35°21' E 139°41'0 0.0
2018-Jan-09 21:00N 35°21' E 139°41'0 0.0
2018-Jan-09 20:30N 35°21' E 139°41'0 0.0
2018-Jan-09 20:00N 35°21' E 139°41'0 0.0
2018-Jan-09 19:24N 35°21' E 139°41'0 0.0
2018-Jan-09 19:00N 35°21' E 139°41'0 0.0
2018-Jan-09 18:30N 35°21' E 139°41'0 0.1
2018-Jan-09 18:00N 35°21' E 139°41'0 0.0
2018-Jan-09 17:27N 35°21' E 139°41'0 0.1
2018-Jan-09 17:00N 35°21' E 139°41'0 0.0
2018-Jan-09 16:30N 35°21' E 139°41'0 0.0
2018-Jan-09 16:00N 35°21' E 139°41'0 0.0
2018-Jan-09 15:30N 35°21' E 139°41'0 0.1
2018-Jan-09 15:00N 35°21' E 139°41'0 0.0
2018-Jan-09 14:30N 35°21' E 139°41'0 0.0
2018-Jan-09 14:00N 35°21' E 139°41'0 0.0
2018-Jan-09 13:30N 35°21' E 139°41'0 0.0
2018-Jan-09 12:57N 35°21' E 139°41'0 0.0
2018-Jan-09 12:30N 35°21' E 139°41'0 0.0
2018-Jan-09 11:57N 35°21' E 139°41'0 0.0
2018-Jan-09 11:30N 35°21' E 139°41'0 0.0
2018-Jan-09 10:57N 35°21' E 139°41'0 0.0
2018-Jan-09 10:30N 35°21' E 139°41'0 0.0
2018-Jan-09 10:00N 35°21' E 139°41'0 0.0
2018-Jan-09 09:30N 35°21' E 139°41'0 0.0
2018-Jan-09 09:00N 35°21' E 139°41'0 0.0
2018-Jan-09 08:30N 35°21' E 139°41'0 0.0
2018-Jan-09 08:00N 35°21' E 139°41'0 0.0
2018-Jan-09 07:27N 35°21' E 139°41'0 0.0
2018-Jan-09 07:00N 35°21' E 139°41'0 0.0
2018-Jan-09 06:30N 35°21' E 139°41'  
Track history (hours):
 
Tides and Currents Weather Stations Pressure Air Temp Water Temp Dewpoint Dewpoint Depression Visibility Wind Speed Wind Dir Waves Ship Positions

Kouka Maru

Last reported at 2018-Jan-19 06:20 UTC. Time now 2018-Jan-19 07:23 UTC.
Position N 34°32' E 138°31'.

Length 68 m; draft 3.7 m.

MMSI: 431000836.

Date/timePositionNaut miles runAvg speedWind from/ knotsBaromVisibWave heightAir tempDewpointWater temp
2018-Jan-19 06:20N 34°32' E 138°31'710.0
2018-Jan-19 05:38N 34°32' E 138°23'169 9.1
2018-Jan-18 11:04N 33°49' E 135°05'311.3
2018-Jan-18 10:50N 33°51' E 135°03'411.1
2018-Jan-18 10:30N 33°54' E 135°01'611.0
2018-Jan-18 10:00N 33°59' E 134°60'511.0
2018-Jan-18 09:30N 34°05' E 134°59'611.0
2018-Jan-18 09:00N 34°10' E 134°59'611.7
2018-Jan-18 08:30N 34°16' E 134°59'611.0
2018-Jan-18 08:00N 34°22' E 134°60'611.2
2018-Jan-18 07:30N 34°27' E 135°01'510.8
2018-Jan-18 07:00N 34°32' E 135°02'510.3
2018-Jan-18 06:30N 34°37' E 135°00'612.3
2018-Jan-18 06:01N 34°38' E 134°53'  
2018-Jan-11 22:43N 34°43' E 134°48'2 8.9
2018-Jan-11 22:30N 34°42' E 134°46'0 0.4
2018-Jan-11 22:00N 34°42' E 134°46'0 0.0
2018-Jan-11 21:30N 34°42' E 134°46'0 0.0
2018-Jan-11 21:00N 34°42' E 134°46'0 0.0
2018-Jan-11 20:30N 34°42' E 134°46'0 0.0
2018-Jan-11 20:00N 34°42' E 134°46'0 0.0
2018-Jan-11 19:30N 34°42' E 134°46'0 0.0
2018-Jan-11 19:01N 34°42' E 134°46'0 0.0
2018-Jan-11 18:30N 34°42' E 134°46'0 0.0
2018-Jan-11 18:00N 34°42' E 134°46'0 0.1
2018-Jan-11 17:30N 34°42' E 134°46'0 0.1
2018-Jan-11 17:00N 34°42' E 134°46'1 2.7
2018-Jan-11 16:31N 34°41' E 134°48'510.5
2018-Jan-11 16:01N 34°38' E 134°53'5 9.7
2018-Jan-11 15:30N 34°38' E 134°59'4 8.5
2018-Jan-11 15:00N 34°36' E 135°03'4 7.1
2018-Jan-11 14:30N 34°33' E 135°05'510.7
2018-Jan-11 14:01N 34°28' E 135°03'510.7
2018-Jan-11 13:31N 34°22' E 135°01'510.5
2018-Jan-11 13:01N 34°17' E 134°59'5 9.1
2018-Jan-11 12:31N 34°13' E 134°59'510.3
2018-Jan-11 12:00N 34°08' E 134°60'510.3
2018-Jan-11 11:30N 34°03' E 135°01'5 9.9
2018-Jan-11 10:59N 33°58' E 135°02'164 7.9
2018-Jan-10 14:14N 34°34' E 138°16'5 8.6
2018-Jan-10 13:40N 34°35' E 138°22'3 9.2
2018-Jan-10 13:17N 34°35' E 138°26'5 8.9
2018-Jan-10 12:44N 34°35' E 138°32'4 8.8
2018-Jan-10 12:14N 34°35' E 138°37'2 8.8
2018-Jan-10 12:00N 34°35' E 138°40'7 8.3
2018-Jan-10 11:05N 34°35' E 138°49'4 7.5
2018-Jan-10 10:30N 34°36' E 138°54'4 8.2
2018-Jan-10 09:58N 34°38' E 138°59'4 9.2
2018-Jan-10 09:30N 34°41' E 139°02'1510.2
2018-Jan-10 08:03N 34°54' E 139°11'210.2
2018-Jan-10 07:49N 34°56' E 139°13'410.1
2018-Jan-10 07:25N 34°58' E 139°17'410.5
2018-Jan-10 07:00N 34°60' E 139°22'5 9.7
2018-Jan-10 06:30N 35°02' E 139°27'4 8.7
2018-Jan-10 06:00N 35°04' E 139°32'4 7.9
2018-Jan-10 05:31N 35°06' E 139°36'4 7.5
2018-Jan-10 05:00N 35°07' E 139°41'3 6.4
2018-Jan-10 04:30N 35°09' E 139°44'4 7.7
2018-Jan-10 04:00N 35°13' E 139°46'4 8.9
2018-Jan-10 03:31N 35°17' E 139°45'510.9
2018-Jan-10 03:01N 35°21' E 139°41'0 0.2
2018-Jan-10 02:30N 35°21' E 139°41'0 0.0
2018-Jan-10 02:00N 35°21' E 139°41'0 0.0
2018-Jan-10 01:30N 35°21' E 139°41'0 0.0
2018-Jan-10 01:00N 35°21' E 139°41'0 0.0
2018-Jan-10 00:30N 35°21' E 139°41'0 0.0
2018-Jan-10 00:00N 35°21' E 139°41'0 0.0
2018-Jan-09 23:27N 35°21' E 139°41'0 0.0
2018-Jan-09 23:00N 35°21' E 139°41'0 0.0
2018-Jan-09 22:30N 35°21' E 139°41'0 0.0
2018-Jan-09 22:00N 35°21' E 139°41'0 0.0
2018-Jan-09 21:30N 35°21' E 139°41'0 0.0
2018-Jan-09 21:00N 35°21' E 139°41'0 0.0
2018-Jan-09 20:30N 35°21' E 139°41'0 0.0
2018-Jan-09 20:00N 35°21' E 139°41'0 0.0
2018-Jan-09 19:24N 35°21' E 139°41'0 0.0
2018-Jan-09 19:00N 35°21' E 139°41'0 0.0
2018-Jan-09 18:30N 35°21' E 139°41'0 0.1
2018-Jan-09 18:00N 35°21' E 139°41'0 0.0
2018-Jan-09 17:27N 35°21' E 139°41'0 0.1
2018-Jan-09 17:00N 35°21' E 139°41'0 0.0
2018-Jan-09 16:30N 35°21' E 139°41'0 0.0
2018-Jan-09 16:00N 35°21' E 139°41'0 0.0
2018-Jan-09 15:30N 35°21' E 139°41'0 0.1
2018-Jan-09 15:00N 35°21' E 139°41'0 0.0
2018-Jan-09 14:30N 35°21' E 139°41'0 0.0
2018-Jan-09 14:00N 35°21' E 139°41'0 0.0
2018-Jan-09 13:30N 35°21' E 139°41'0 0.0
2018-Jan-09 12:57N 35°21' E 139°41'0 0.0
2018-Jan-09 12:30N 35°21' E 139°41'0 0.0
2018-Jan-09 11:57N 35°21' E 139°41'0 0.0
2018-Jan-09 11:30N 35°21' E 139°41'0 0.0
2018-Jan-09 10:57N 35°21' E 139°41'0 0.0
2018-Jan-09 10:30N 35°21' E 139°41'0 0.0
2018-Jan-09 10:00N 35°21' E 139°41'0 0.0
2018-Jan-09 09:30N 35°21' E 139°41'0 0.0
2018-Jan-09 09:00N 35°21' E 139°41'0 0.0
2018-Jan-09 08:30N 35°21' E 139°41'0 0.0
2018-Jan-09 08:00N 35°21' E 139°41'0 0.0
2018-Jan-09 07:27N 35°21' E 139°41'0 0.0
2018-Jan-09 07:00N 35°21' E 139°41'0 0.0
2018-Jan-09 06:30N 35°21' E 139°41'  

Dump ship's entire track history